Hakalau, HI (96710)

5:51 PM HST on November 28, 2014 (GMT -1000)
Hakalau | Change Station
CLOSE
Current Station
Personal Weather Station
Location: Hakalau, HI
Elevation: 1020 ft
Nearby Weather Stations
Active Advisory: High Surf Advisory

Elev 1020 ft 19.87 °N, 155.15 °W | Updated 8 minutes ago

Rain
Rain
67.8 °F
Feels Like 67.8 °F
N
0.0
Wind Variable Wind from SSW
Gusts 1.0 mph

Today
High -- | Low -- °F
--% Chance of Precip.
Yesterday
High -- | Low -- °F
Precip. -- in
6:37 AM 5:39 PM
Waxing Crescent, 47% visible
Pressure 30.02 in
Visibility 10.0 miles
Clouds Few 2000 ft
Overcast 2800 ft
Dew Point 68 °F
Humidity 99%
Rainfall 1.62 in
Snow Depth Not available.
UV 0 out of 12
Pollen Not available.
Air Quality Not available.
Flu Activity Not available.
SPECI PHTO 290340Z 09004KT 10SM FEW020 OVC028 23/20 A3002 RMK AO2 T02330200 $

More Conditions Fewer Conditions

Pressure 30.02 in
Visibility 10.0 miles
Clouds Few 2000 ft
Overcast 2800 ft
Dew Point 68 °F
Humidity 99%
Rainfall 1.62 in
Snow Depth Not available.
UV 0 out of 12
Pollen Not available.
Air Quality Not available.
Flu Activity Not available.
SPECI PHTO 290340Z 09004KT 10SM FEW020 OVC028 23/20 A3002 RMK AO2 T02330200 $

More Conditions Fewer Conditions

10-Day Weather Forecast

Almanac

Astronomy

Nov. 28, 2014 Rise Set
Actual Time
Civil Twilight
Nautical Twilight
Astronomical Twilight
Moon
Length of Visible Light
Length of Day
Tomorrow will be .
, % of the Moon is Illuminated

Today's Extremes

State Highs State Lows

Community

WunderPhotos

Upload Photos

1,774,389 photos uploaded!

WunderBlogs® & News

Nearby

Air Quality

  Air Quality AQ Index Pollutant
Not available.

Snow Depth

Station Depth Elevation

Earthquake Activity

City Distance Mag. Time & Date
Minimum magnitude displayed is 2.5.

Coastal Water Temperatures

Place Temperature

Nearby Weather Stations